createdAt,value
2023-02-11T00:00:34.005Z,49.20
2023-02-11T00:03:00.579Z,47.43
2023-02-11T00:05:27.047Z,48.53
2023-02-11T00:07:53.444Z,49.10
2023-02-11T00:10:19.904Z,51.07
2023-02-11T00:12:46.481Z,51.57
2023-02-11T00:15:13.059Z,49.57
2023-02-11T00:17:39.482Z,53.63
2023-02-11T00:20:08.318Z,50.77
2023-02-11T00:22:35.832Z,50.03
2023-02-11T00:25:02.479Z,48.90
2023-02-11T00:27:29.370Z,49.20
2023-02-11T00:29:56.118Z,51.57
2023-02-11T00:32:22.771Z,52.50
2023-02-11T00:34:52.495Z,49.17
2023-02-11T00:37:18.960Z,48.47
2023-02-11T00:39:46.061Z,45.63
2023-02-11T00:42:15.055Z,47.23
2023-02-11T00:44:41.538Z,51.80
2023-02-11T00:47:08.324Z,48.10
2023-02-11T00:49:35.212Z,44.33
2023-02-11T00:52:02.061Z,47.87
2023-02-11T00:54:30.003Z,49.77
2023-02-11T00:56:56.541Z,46.87
2023-02-11T00:59:23.305Z,45.63
2023-02-11T01:01:51.379Z,46.47
2023-02-11T01:04:18.104Z,49.37
2023-02-11T01:06:44.568Z,49.47
2023-02-11T01:09:11.015Z,46.53
2023-02-11T01:11:37.496Z,51.27
2023-02-11T01:14:04.010Z,45.37
2023-02-11T01:16:30.501Z,47.30
2023-02-11T01:18:58.790Z,47.20
2023-02-11T01:21:25.816Z,44.33
2023-02-11T01:23:52.600Z,42.43
2023-02-11T01:26:19.269Z,49.23
2023-02-11T01:28:45.839Z,48.27
2023-02-11T01:31:12.359Z,47.13
2023-02-11T01:33:38.975Z,44.03
2023-02-11T01:36:06.311Z,51.03
2023-02-11T01:38:33.227Z,41.80
2023-02-11T01:41:05.506Z,45.07
2023-02-11T01:43:35.301Z,46.47
2023-02-11T01:46:15.138Z,45.57
2023-02-11T01:48:44.734Z,49.67
2023-02-11T01:51:16.760Z,45.30
2023-02-11T01:54:02.476Z,44.63
2023-02-11T01:56:49.769Z,49.77
2023-02-11T01:59:24.093Z,50.10
2023-02-11T02:01:53.593Z,45.23
2023-02-11T02:04:21.453Z,43.33
2023-02-11T02:07:01.991Z,43.33
2023-02-11T02:09:31.278Z,41.87
2023-02-11T02:11:57.826Z,44.50
2023-02-11T02:14:24.401Z,46.97
2023-02-11T02:16:50.893Z,46.77
2023-02-11T02:19:36.096Z,48.17
2023-02-11T02:22:14.687Z,44.73
2023-02-11T02:25:32.501Z,44.27
2023-02-11T02:28:08.856Z,47.47
2023-02-11T02:30:57.160Z,45.80
2023-02-11T02:33:49.430Z,46.83
2023-02-11T02:36:22.733Z,41.43
2023-02-11T02:39:12.569Z,42.23
2023-02-11T02:41:39.525Z,43.23
2023-02-11T02:44:07.697Z,42.77
2023-02-11T02:46:35.073Z,43.10
2023-02-11T02:49:02.008Z,46.20
2023-02-11T02:51:54.488Z,43.57
2023-02-11T02:54:46.203Z,41.07
2023-02-11T02:57:45.062Z,42.27
2023-02-11T03:00:35.602Z,45.73
2023-02-11T03:03:26.477Z,40.93
2023-02-11T03:05:58.903Z,44.83
2023-02-11T03:09:11.542Z,39.73
2023-02-11T03:11:38.497Z,39.23
2023-02-11T03:14:09.472Z,45.13
2023-02-11T03:16:39.260Z,42.57
2023-02-11T03:19:11.282Z,39.57
2023-02-11T03:21:38.756Z,42.70
2023-02-11T03:24:08.774Z,41.90
2023-02-11T03:26:43.238Z,45.13
2023-02-11T03:29:34.804Z,42.43
2023-02-11T03:32:12.196Z,47.23
2023-02-11T03:34:44.748Z,45.80
2023-02-11T03:37:25.415Z,43.07
2023-02-11T03:39:59.358Z,46.43
2023-02-11T03:42:29.036Z,45.93
2023-02-11T03:45:04.149Z,44.60
2023-02-11T03:47:32.260Z,43.47
2023-02-11T03:49:59.675Z,45.60
2023-02-11T03:52:28.129Z,46.13
2023-02-11T03:54:57.681Z,46.77
2023-02-11T03:57:24.269Z,46.90
2023-02-11T03:59:56.161Z,46.73
2023-02-11T04:02:25.712Z,47.60
2023-02-11T04:04:52.210Z,43.37
2023-02-11T04:07:18.616Z,46.37
2023-02-11T04:09:45.198Z,48.63
2023-02-11T04:12:11.680Z,49.20
2023-02-11T04:14:38.455Z,44.80
2023-02-11T04:17:05.358Z,44.77
2023-02-11T04:19:32.244Z,48.07
2023-02-11T04:21:58.777Z,51.63
2023-02-11T04:24:25.346Z,46.07
2023-02-11T04:26:52.666Z,46.33
2023-02-11T04:29:19.641Z,48.57
2023-02-11T04:31:46.598Z,46.50
2023-02-11T04:34:13.323Z,44.97
2023-02-11T04:36:39.967Z,45.70
2023-02-11T04:39:06.699Z,47.10
2023-02-11T04:41:33.235Z,49.53
2023-02-11T04:43:59.809Z,48.13
2023-02-11T04:46:26.471Z,49.10
2023-02-11T04:48:53.048Z,46.40
2023-02-11T04:51:19.482Z,45.73
2023-02-11T04:53:45.928Z,46.43
2023-02-11T04:56:12.386Z,45.20
2023-02-11T04:58:38.867Z,47.50
2023-02-11T05:01:09.797Z,51.53
2023-02-11T05:03:37.005Z,51.30
2023-02-11T05:06:04.088Z,47.47
2023-02-11T05:08:30.738Z,48.00
2023-02-11T05:10:57.669Z,47.67
2023-02-11T05:13:24.347Z,49.23
2023-02-11T05:15:51.280Z,49.97
2023-02-11T05:18:17.927Z,46.30
2023-02-11T05:20:44.739Z,51.47
2023-02-11T05:23:12.069Z,49.00
2023-02-11T05:25:38.780Z,45.27
2023-02-11T05:28:05.680Z,48.87
2023-02-11T05:30:32.903Z,47.63
2023-02-11T05:32:59.452Z,49.40
2023-02-11T05:35:25.910Z,53.23
2023-02-11T05:37:52.432Z,51.50
2023-02-11T05:40:18.970Z,50.93
2023-02-11T05:42:45.455Z,52.93
2023-02-11T05:45:11.920Z,48.90
2023-02-11T05:47:38.475Z,53.70
2023-02-11T05:50:05.532Z,56.17
2023-02-11T05:52:32.072Z,52.47
2023-02-11T05:54:58.698Z,54.67
2023-02-11T05:57:25.245Z,54.80
2023-02-11T05:59:51.805Z,55.33
2023-02-11T06:02:18.265Z,54.37
2023-02-11T06:04:44.794Z,51.90
2023-02-11T06:07:11.697Z,53.83
2023-02-11T06:09:38.176Z,53.50
2023-02-11T06:12:05.033Z,59.27
2023-02-11T06:14:33.790Z,53.87
2023-02-11T06:17:01.149Z,51.60
2023-02-11T06:19:27.704Z,57.27
2023-02-11T06:21:55.380Z,56.10
2023-02-11T06:24:47.778Z,54.77
2023-02-11T06:27:09.180Z,56.00
2023-02-11T06:29:35.947Z,54.43
2023-02-11T06:32:02.476Z,56.67
2023-02-11T06:34:29.038Z,53.73
2023-02-11T06:36:55.591Z,59.60
2023-02-11T06:39:22.085Z,57.80
2023-02-11T06:41:48.788Z,90.57
2023-02-11T06:44:15.287Z,62.77
2023-02-11T06:46:41.828Z,62.97
2023-02-11T06:49:08.289Z,59.03
2023-02-11T06:51:34.787Z,99.33
2023-02-11T06:54:01.177Z,57.03
2023-02-11T06:56:27.856Z,67.23
2023-02-11T06:58:57.804Z,64.83
2023-02-11T07:01:25.127Z,62.37
2023-02-11T07:03:51.805Z,51.07
2023-02-11T07:06:21.519Z,57.73
2023-02-11T07:08:48.698Z,57.17
2023-02-11T07:11:17.789Z,51.87
2023-02-11T07:13:44.539Z,56.13
2023-02-11T07:16:16.595Z,54.90
2023-02-11T07:18:43.769Z,55.97
2023-02-11T07:21:13.142Z,55.40
2023-02-11T07:23:40.876Z,57.40
2023-02-11T07:26:09.550Z,54.73
2023-02-11T07:28:37.501Z,55.07
2023-02-11T07:31:12.404Z,54.57
2023-02-11T07:33:38.998Z,52.50
2023-02-11T07:36:06.837Z,54.70
2023-02-11T07:38:34.567Z,56.23
2023-02-11T07:41:02.678Z,53.33
2023-02-11T07:43:29.475Z,55.10
2023-02-11T07:45:55.970Z,52.90
2023-02-11T07:48:22.416Z,60.10
2023-02-11T07:50:49.089Z,61.03
2023-02-11T07:53:15.685Z,64.83
2023-02-11T07:55:45.189Z,62.63
2023-02-11T07:58:11.759Z,58.30
2023-02-11T08:00:38.988Z,61.13
2023-02-11T08:03:07.820Z,63.20
2023-02-11T08:05:38.177Z,59.83
2023-02-11T08:08:04.683Z,55.63
2023-02-11T08:10:31.357Z,59.20
2023-02-11T08:12:57.880Z,55.90
2023-02-11T08:15:26.506Z,53.47
2023-02-11T08:17:52.884Z,52.93
2023-02-11T08:20:19.422Z,52.83
2023-02-11T08:22:45.910Z,53.63
2023-02-11T08:25:12.320Z,57.23
2023-02-11T08:27:38.919Z,49.30
2023-02-11T08:30:05.899Z,49.27
2023-02-11T08:32:34.712Z,50.50
2023-02-11T08:35:01.306Z,55.90
2023-02-11T08:37:27.841Z,51.40
2023-02-11T08:39:55.023Z,46.13
2023-02-11T08:42:21.436Z,49.20
2023-02-11T08:44:47.941Z,51.73
2023-02-11T08:47:14.482Z,46.47
2023-02-11T08:49:42.349Z,49.90
2023-02-11T08:52:08.939Z,52.23
2023-02-11T08:54:35.503Z,49.90
2023-02-11T08:57:02.063Z,49.87
2023-02-11T08:59:29.122Z,52.83
2023-02-11T09:01:56.339Z,51.33
2023-02-11T09:04:22.876Z,56.70
2023-02-11T09:06:49.380Z,46.07
2023-02-11T09:09:16.287Z,52.00
2023-02-11T09:11:44.357Z,51.40
2023-02-11T09:14:20.135Z,50.50
2023-02-11T09:16:47.345Z,48.03
2023-02-11T09:19:13.916Z,46.00
2023-02-11T09:21:40.444Z,50.40
2023-02-11T09:24:07.140Z,50.27
2023-02-11T09:26:35.360Z,48.43
2023-02-11T09:29:03.116Z,51.27
2023-02-11T09:31:31.051Z,48.67
2023-02-11T09:34:04.362Z,50.47
2023-02-11T09:36:34.233Z,50.57
2023-02-11T09:39:01.900Z,49.50
2023-02-11T09:42:05.864Z,47.27
2023-02-11T09:44:34.377Z,50.83
2023-02-11T09:47:03.649Z,47.50
2023-02-11T09:49:40.380Z,49.37
2023-02-11T09:52:45.738Z,48.30
2023-02-11T09:55:22.067Z,48.20
2023-02-11T09:57:48.876Z,52.40
2023-02-11T10:00:29.255Z,53.13
2023-02-11T10:03:03.939Z,50.03
2023-02-11T10:05:49.008Z,46.30
2023-02-11T10:08:34.285Z,48.07
2023-02-11T10:11:13.871Z,50.60
2023-02-11T10:14:01.943Z,49.53
2023-02-11T10:16:49.712Z,49.73
2023-02-11T10:19:33.857Z,53.87
2023-02-11T10:22:18.869Z,49.97
2023-02-11T10:24:55.438Z,50.20
2023-02-11T10:27:31.307Z,49.47
2023-02-11T10:30:19.167Z,46.87
2023-02-11T10:32:51.266Z,45.97
2023-02-11T10:35:21.911Z,49.77
2023-02-11T10:37:48.918Z,46.17
2023-02-11T10:40:33.876Z,46.57
2023-02-11T10:43:05.152Z,46.73
2023-02-11T10:45:38.801Z,41.47
2023-02-11T10:48:07.195Z,47.23
2023-02-11T10:50:35.101Z,49.20
2023-02-11T10:53:22.288Z,45.33
2023-02-11T10:55:57.263Z,47.27
2023-02-11T10:58:29.393Z,47.60
2023-02-11T11:00:56.905Z,44.37
2023-02-11T11:03:25.522Z,48.93
2023-02-11T11:05:57.413Z,46.90
2023-02-11T11:08:50.759Z,45.60
2023-02-11T11:11:19.616Z,48.27
2023-02-11T11:13:52.290Z,44.90
2023-02-11T11:16:25.658Z,48.10
2023-02-11T11:19:13.690Z,45.70
2023-02-11T11:21:46.082Z,45.37
2023-02-11T11:24:24.538Z,44.63
2023-02-11T11:26:54.591Z,46.30
2023-02-11T11:29:39.617Z,44.20
2023-02-11T11:32:11.427Z,44.53
2023-02-11T11:34:41.844Z,47.10
2023-02-11T11:37:21.216Z,51.13
2023-02-11T11:39:57.846Z,44.50
2023-02-11T11:42:35.289Z,43.50
2023-02-11T11:45:14.961Z,46.63
2023-02-11T11:47:45.423Z,47.63
2023-02-11T11:50:21.241Z,49.70
2023-02-11T11:53:25.592Z,48.23
2023-02-11T11:56:02.786Z,47.33
2023-02-11T11:58:30.524Z,44.30
2023-02-11T12:01:12.817Z,45.90
2023-02-11T12:03:48.713Z,43.47
2023-02-11T12:06:27.126Z,44.13
2023-02-11T12:09:00.886Z,43.67
2023-02-11T12:11:46.569Z,40.77
2023-02-11T12:14:28.377Z,44.23
2023-02-11T12:17:07.580Z,44.83
2023-02-11T12:19:40.081Z,43.63
2023-02-11T12:22:12.125Z,44.40
2023-02-11T12:24:50.920Z,45.40
2023-02-11T12:27:32.492Z,45.13
2023-02-11T12:30:02.332Z,44.20
2023-02-11T12:32:46.970Z,45.60
2023-02-11T12:35:38.532Z,44.87
2023-02-11T12:38:28.577Z,44.10
2023-02-11T12:41:15.349Z,43.27
2023-02-11T12:43:43.613Z,40.83
2023-02-11T12:46:47.723Z,41.80
2023-02-11T12:49:23.197Z,43.10
2023-02-11T12:52:08.747Z,42.07
2023-02-11T12:55:01.284Z,41.70
2023-02-11T12:57:30.290Z,44.40
2023-02-11T13:00:15.330Z,46.00
2023-02-11T13:02:44.623Z,42.47
2023-02-11T13:05:27.761Z,45.43
2023-02-11T13:07:59.385Z,44.40
2023-02-11T13:10:34.507Z,44.17
2023-02-11T13:13:17.911Z,42.30
2023-02-11T13:16:09.175Z,44.10
2023-02-11T13:18:55.985Z,41.23
2023-02-11T13:21:43.458Z,42.00
2023-02-11T13:24:49.084Z,43.47
2023-02-11T13:27:33.018Z,43.20
2023-02-11T13:30:22.049Z,42.00
2023-02-11T13:32:54.740Z,47.40
2023-02-11T13:35:31.780Z,43.03
2023-02-11T13:38:01.005Z,44.93
2023-02-11T13:40:39.605Z,43.47
2023-02-11T13:43:20.434Z,40.50
2023-02-11T13:45:48.489Z,43.67
2023-02-11T13:48:48.200Z,39.73
2023-02-11T13:51:32.368Z,40.43
2023-02-11T13:53:59.252Z,41.10
2023-02-11T13:56:40.149Z,39.63
2023-02-11T13:59:30.618Z,42.00
2023-02-11T14:02:18.656Z,48.07
2023-02-11T14:05:22.255Z,42.03
2023-02-11T14:08:30.455Z,42.07
2023-02-11T14:11:14.722Z,42.00
2023-02-11T14:13:47.405Z,40.43
2023-02-11T14:16:22.637Z,43.20
2023-02-11T14:18:54.641Z,41.13
2023-02-11T14:21:30.510Z,38.90
2023-02-11T14:24:04.756Z,39.97
2023-02-11T14:26:47.627Z,41.73
2023-02-11T14:29:33.376Z,40.67
2023-02-11T14:32:24.180Z,44.30
2023-02-11T14:35:35.871Z,40.17
2023-02-11T14:38:26.914Z,41.53
2023-02-11T14:41:14.691Z,39.83
2023-02-11T14:43:46.933Z,39.23
2023-02-11T14:46:15.962Z,41.80
2023-02-11T14:48:45.971Z,38.67
2023-02-11T14:51:19.766Z,40.67
2023-02-11T14:53:49.146Z,39.50
2023-02-11T14:56:31.021Z,42.30
2023-02-11T14:58:58.132Z,38.30
2023-02-11T15:01:36.226Z,42.43
2023-02-11T15:04:05.638Z,43.20
2023-02-11T15:06:37.051Z,39.37
2023-02-11T15:09:16.210Z,45.50
2023-02-11T15:11:44.428Z,39.57
2023-02-11T15:14:34.869Z,42.73
2023-02-11T15:17:04.332Z,39.20
2023-02-11T15:19:41.056Z,41.13
2023-02-11T15:22:18.477Z,40.50
2023-02-11T15:24:45.427Z,40.10
2023-02-11T15:27:18.486Z,41.07
2023-02-11T15:29:49.387Z,42.00
2023-02-11T15:32:21.778Z,39.70
2023-02-11T15:34:50.356Z,45.37
2023-02-11T15:37:23.591Z,44.90
2023-02-11T15:39:50.740Z,42.23
2023-02-11T15:42:20.822Z,47.17
2023-02-11T15:44:54.303Z,42.27
2023-02-11T15:47:29.399Z,40.80
2023-02-11T15:49:55.903Z,39.90
2023-02-11T15:52:25.218Z,40.70
2023-02-11T15:54:52.787Z,41.00
2023-02-11T15:57:20.094Z,41.47
2023-02-11T15:59:49.545Z,37.27
2023-02-11T16:02:24.321Z,41.10
2023-02-11T16:04:59.216Z,42.90
2023-02-11T16:07:40.993Z,45.83
2023-02-11T16:10:19.116Z,36.63
2023-02-11T16:13:07.082Z,45.40
2023-02-11T16:15:33.897Z,39.03
2023-02-11T16:18:02.020Z,45.93
2023-02-11T16:20:28.463Z,50.13
2023-02-11T16:22:55.074Z,50.13
2023-02-11T16:25:22.224Z,50.10
2023-02-11T16:27:52.064Z,48.07
2023-02-11T16:30:23.864Z,42.70
2023-02-11T16:32:53.084Z,40.50
2023-02-11T16:35:19.591Z,41.07
2023-02-11T16:37:46.071Z,40.20
2023-02-11T16:40:13.190Z,45.00
2023-02-11T16:42:39.838Z,45.80
2023-02-11T16:45:06.785Z,41.47
2023-02-11T16:47:34.437Z,44.17
2023-02-11T16:50:01.476Z,45.53
2023-02-11T16:52:31.409Z,53.27
2023-02-11T16:54:58.787Z,52.70
2023-02-11T16:57:29.546Z,50.33
2023-02-11T16:59:56.563Z,53.17
2023-02-11T17:02:26.091Z,53.43
2023-02-11T17:04:54.396Z,53.40
2023-02-11T17:07:21.090Z,58.53
2023-02-11T17:09:47.547Z,54.77
2023-02-11T17:12:13.932Z,64.23
2023-02-11T17:14:40.670Z,65.40
2023-02-11T17:17:08.052Z,64.40
2023-02-11T17:19:34.493Z,64.87
2023-02-11T17:22:00.948Z,65.73
2023-02-11T17:24:27.426Z,59.17
2023-02-11T17:26:54.748Z,62.93
2023-02-11T17:29:24.446Z,63.83
2023-02-11T17:31:52.436Z,61.33
2023-02-11T17:34:20.279Z,61.17
2023-02-11T17:36:46.732Z,60.90
2023-02-11T17:39:13.319Z,61.50
2023-02-11T17:41:40.474Z,61.47
2023-02-11T17:44:08.558Z,64.20
2023-02-11T17:46:35.806Z,65.87
2023-02-11T17:49:02.944Z,61.83
2023-02-11T17:51:32.592Z,59.93
2023-02-11T17:54:01.449Z,67.00
2023-02-11T17:56:29.874Z,62.20
2023-02-11T17:58:56.289Z,66.30
2023-02-11T18:01:23.098Z,69.37
2023-02-11T18:03:49.613Z,68.50
2023-02-11T18:06:16.087Z,68.90
2023-02-11T18:08:43.087Z,71.77
2023-02-11T18:11:10.880Z,74.03
2023-02-11T18:13:37.257Z,77.57
2023-02-11T18:16:04.660Z,83.13
2023-02-11T18:18:31.564Z,84.47
2023-02-11T18:20:59.508Z,83.63
2023-02-11T18:23:26.678Z,89.70
2023-02-11T18:25:53.782Z,95.70
2023-02-11T18:28:20.424Z,91.87
2023-02-11T18:30:47.010Z,91.47
2023-02-11T18:33:14.580Z,97.60
2023-02-11T18:35:41.713Z,97.07
2023-02-11T18:38:08.944Z,100.17
2023-02-11T18:40:38.469Z,98.70
2023-02-11T18:43:05.020Z,111.77
2023-02-11T18:45:31.628Z,107.80
2023-02-11T18:48:01.517Z,102.93
2023-02-11T18:50:28.016Z,109.07
2023-02-11T18:52:54.449Z,98.97
2023-02-11T18:55:25.307Z,101.23
2023-02-11T18:57:52.929Z,105.77
2023-02-11T19:00:20.501Z,97.67
2023-02-11T19:02:47.024Z,95.17
2023-02-11T19:05:13.843Z,88.27
2023-02-11T19:07:40.236Z,93.47
2023-02-11T19:10:07.463Z,109.73
2023-02-11T19:12:34.282Z,93.40
2023-02-11T19:15:00.860Z,104.23
2023-02-11T19:17:27.677Z,92.53
2023-02-11T19:19:54.478Z,95.23
2023-02-11T19:22:21.049Z,87.37
2023-02-11T19:24:47.553Z,86.87
2023-02-11T19:27:14.104Z,95.03
2023-02-11T19:29:40.691Z,94.80
2023-02-11T19:32:07.274Z,99.13
2023-02-11T19:34:40.936Z,101.27
2023-02-11T19:37:08.640Z,92.03
2023-02-11T19:39:35.097Z,101.50
2023-02-11T19:42:01.649Z,91.27
2023-02-11T19:44:28.166Z,92.50
2023-02-11T19:46:54.777Z,87.20
2023-02-11T19:49:26.238Z,87.27
2023-02-11T19:51:54.264Z,93.23
2023-02-11T19:54:21.980Z,87.57
2023-02-11T19:56:48.789Z,97.10
2023-02-11T19:59:16.034Z,92.03
2023-02-11T20:01:43.413Z,100.83
2023-02-11T20:04:10.758Z,104.97
2023-02-11T20:06:37.220Z,102.80
2023-02-11T20:09:06.960Z,98.73
2023-02-11T20:11:34.712Z,103.40
2023-02-11T20:14:01.189Z,116.47
2023-02-11T20:16:46.051Z,97.93
2023-02-11T20:19:17.815Z,93.27
2023-02-11T20:21:47.068Z,106.20
2023-02-11T20:24:14.857Z,104.30
2023-02-11T20:26:42.461Z,94.77
2023-02-11T20:29:09.358Z,98.10
2023-02-11T20:31:36.339Z,86.63
2023-02-11T20:34:02.957Z,87.93
2023-02-11T20:36:32.303Z,92.57
2023-02-11T20:39:00.351Z,93.07
2023-02-11T20:41:32.666Z,90.67
2023-02-11T20:44:01.075Z,82.83
2023-02-11T20:46:30.165Z,86.60
2023-02-11T20:48:57.202Z,88.90
2023-02-11T20:51:26.748Z,90.27
2023-02-11T20:53:53.587Z,86.90
2023-02-11T20:56:22.409Z,84.83
2023-02-11T20:58:49.519Z,84.20
2023-02-11T21:01:22.002Z,86.60
2023-02-11T21:03:55.314Z,92.43
2023-02-11T21:06:22.430Z,93.77
2023-02-11T21:08:49.047Z,93.73
2023-02-11T21:11:16.320Z,93.23
2023-02-11T21:13:43.483Z,98.27
2023-02-11T21:16:15.320Z,96.03
2023-02-11T21:18:42.112Z,94.17
2023-02-11T21:21:08.842Z,95.10
2023-02-11T21:23:35.864Z,89.37
2023-02-11T21:26:02.308Z,93.40
2023-02-11T21:28:28.845Z,88.03
2023-02-11T21:30:56.699Z,98.53
2023-02-11T21:33:24.147Z,102.90
2023-02-11T21:35:54.219Z,99.07
2023-02-11T21:38:20.933Z,101.37
2023-02-11T21:40:47.348Z,96.37
2023-02-11T21:43:13.828Z,94.87
2023-02-11T21:45:44.318Z,99.40
2023-02-11T21:48:11.128Z,93.17
2023-02-11T21:50:45.078Z,103.87
2023-02-11T21:53:12.485Z,101.33
2023-02-11T21:55:39.817Z,96.80
2023-02-11T21:58:06.647Z,87.97
2023-02-11T22:00:33.897Z,98.93
2023-02-11T22:03:00.433Z,99.20
2023-02-11T22:05:27.006Z,94.57
2023-02-11T22:07:53.515Z,99.07
2023-02-11T22:10:20.339Z,114.80
2023-02-11T22:12:46.826Z,96.80
2023-02-11T22:15:13.520Z,98.30
2023-02-11T22:17:40.271Z,108.83
2023-02-11T22:20:07.262Z,105.80
2023-02-11T22:22:33.784Z,109.60
2023-02-11T22:25:01.880Z,105.60
2023-02-11T22:27:28.328Z,103.97
2023-02-11T22:29:54.756Z,100.60
2023-02-11T22:32:21.327Z,104.57
2023-02-11T22:34:47.791Z,113.73
2023-02-11T22:37:15.023Z,97.63
2023-02-11T22:39:42.722Z,103.03
2023-02-11T22:42:09.630Z,106.83
2023-02-11T22:44:37.036Z,104.30
2023-02-11T22:47:03.516Z,106.80
2023-02-11T22:49:32.416Z,101.90
2023-02-11T22:51:59.560Z,92.57
2023-02-11T22:54:25.966Z,104.63
2023-02-11T22:56:53.289Z,115.50
2023-02-11T22:59:20.016Z,101.67
2023-02-11T23:01:46.710Z,94.87
2023-02-11T23:04:14.866Z,107.63
2023-02-11T23:06:41.349Z,99.33
2023-02-11T23:09:09.381Z,99.00
2023-02-11T23:11:35.978Z,105.60
2023-02-11T23:14:02.960Z,104.17
2023-02-11T23:16:31.935Z,103.57
2023-02-11T23:18:59.765Z,107.47
2023-02-11T23:21:28.911Z,113.63
2023-02-11T23:23:57.373Z,103.60
2023-02-11T23:26:24.363Z,106.80
2023-02-11T23:28:50.964Z,108.83
2023-02-11T23:31:23.539Z,98.77
2023-02-11T23:33:50.638Z,108.17
2023-02-11T23:36:18.633Z,106.43
2023-02-11T23:38:45.392Z,101.73
2023-02-11T23:41:11.901Z,106.70
2023-02-11T23:43:38.820Z,109.70
2023-02-11T23:46:05.901Z,106.17
2023-02-11T23:48:32.701Z,112.43
2023-02-11T23:50:59.675Z,114.30
2023-02-11T23:53:26.123Z,99.57
2023-02-11T23:55:52.699Z,109.23
2023-02-11T23:58:19.486Z,114.07
